createdAt,value
2016-07-30T00:01:02.087Z,18
2016-07-30T00:04:15.727Z,18
2016-07-30T00:07:29.366Z,18
2016-07-30T00:10:42.966Z,18
2016-07-30T00:13:56.603Z,18
2016-07-30T00:17:15.603Z,18
2016-07-30T00:20:19.931Z,18
2016-07-30T00:23:33.368Z,18
2016-07-30T00:26:47.297Z,18
2016-07-30T00:30:01.125Z,17.9
2016-07-30T00:33:14.957Z,17.9
2016-07-30T00:36:32.468Z,17.9
2016-07-30T00:39:41.317Z,17.9
2016-07-30T00:42:54.998Z,17.9
2016-07-30T00:46:13.437Z,17.9
2016-07-30T00:49:17.720Z,17.9
2016-07-30T00:52:31.508Z,17.8
2016-07-30T00:55:45.229Z,17.8
2016-07-30T00:58:59.116Z,17.8
2016-07-30T01:02:12.319Z,17.8
2016-07-30T01:05:25.935Z,17.7
2016-07-30T01:08:39.726Z,17.7
2016-07-30T01:11:53.190Z,17.7
2016-07-30T01:15:11.923Z,17.6
2016-07-30T01:18:16.278Z,17.6
2016-07-30T01:21:29.704Z,17.5
2016-07-30T01:24:43.702Z,17.5
2016-07-30T01:27:57.614Z,17.5
2016-07-30T01:31:16.124Z,17.4
2016-07-30T01:34:20.438Z,17.4
2016-07-30T01:37:34.053Z,17.3
2016-07-30T01:40:47.670Z,17.3
2016-07-30T01:44:01.345Z,17.3
2016-07-30T01:47:14.857Z,17.2
2016-07-30T01:50:28.261Z,17.2
2016-07-30T01:53:41.610Z,17.2
2016-07-30T01:56:55.392Z,17.1
2016-07-30T02:00:13.863Z,17.1
2016-07-30T02:03:18.407Z,17.1
2016-07-30T02:06:31.867Z,17.1
2016-07-30T02:09:45.422Z,17.1
2016-07-30T02:12:59.428Z,17.1
2016-07-30T02:16:13.064Z,17
2016-07-30T02:19:26.670Z,17
2016-07-30T02:22:40.191Z,17
2016-07-30T02:25:53.826Z,17
2016-07-30T02:29:12.364Z,17
2016-07-30T02:32:16.875Z,17
2016-07-30T02:35:30.607Z,17
2016-07-30T02:38:44.483Z,17
2016-07-30T02:41:58.332Z,17
2016-07-30T02:45:12.345Z,17.1
2016-07-30T02:48:25.971Z,17.1
2016-07-30T02:51:39.769Z,17.1
2016-07-30T02:54:53.372Z,17.1
2016-07-30T02:58:12.029Z,17.1
2016-07-30T03:01:16.533Z,17
2016-07-30T03:04:30.083Z,17
2016-07-30T03:07:43.702Z,17
2016-07-30T03:10:57.246Z,17
2016-07-30T03:14:15.809Z,17
2016-07-30T03:17:20.273Z,17
2016-07-30T03:20:34.067Z,17
2016-07-30T03:23:47.864Z,17
2016-07-30T03:27:02.022Z,17
2016-07-30T03:30:15.314Z,17
2016-07-30T03:33:29.210Z,17
2016-07-30T03:36:42.677Z,16.9
2016-07-30T03:39:56.620Z,16.9
2016-07-30T03:43:15.360Z,16.9
2016-07-30T03:46:19.729Z,16.8
2016-07-30T03:49:33.651Z,16.8
2016-07-30T03:56:01.303Z,16.7
2016-07-30T03:59:14.856Z,16.7
2016-07-30T04:02:28.747Z,16.7
2016-07-30T04:05:42.625Z,16.7
2016-07-30T04:08:56.130Z,16.7
2016-07-30T04:12:14.921Z,16.7
2016-07-30T04:15:19.294Z,16.7
2016-07-30T04:18:32.721Z,16.7
2016-07-30T04:21:46.268Z,16.7
2016-07-30T04:24:59.733Z,16.8
2016-07-30T04:28:13.269Z,16.8
2016-07-30T04:31:26.822Z,16.8
2016-07-30T04:34:40.672Z,16.9
2016-07-30T04:41:13.064Z,16.9
2016-07-30T04:44:17.523Z,16.9
2016-07-30T04:47:31.277Z,17
2016-07-30T04:50:44.959Z,17
2016-07-30T04:53:58.960Z,17
2016-07-30T04:57:12.983Z,17
2016-07-30T05:00:26.784Z,17
2016-07-30T05:03:40.388Z,17
2016-07-30T05:06:54.022Z,17.1
2016-07-30T05:10:12.689Z,17.1
2016-07-30T05:13:17.104Z,17.1
2016-07-30T05:16:30.855Z,17.1
2016-07-30T05:19:44.515Z,17.1
2016-07-30T05:22:58.376Z,17.1
2016-07-30T05:26:17.296Z,17.1
2016-07-30T05:29:21.603Z,17.1
2016-07-30T05:32:35.286Z,17.2
2016-07-30T05:35:49.101Z,17.3
2016-07-30T05:39:07.561Z,17.3
2016-07-30T05:42:17.022Z,17.3
2016-07-30T05:45:21.456Z,17.3
2016-07-30T05:48:35.214Z,17.3
2016-07-30T05:51:49.091Z,17.3
2016-07-30T05:55:08.203Z,17.3
2016-07-30T05:58:12.725Z,17.3
2016-07-30T06:01:26.750Z,17.3
2016-07-30T06:04:38.874Z,17.4
2016-07-30T06:07:54.821Z,17.4
2016-07-30T06:11:13.463Z,17.4
2016-07-30T06:14:18.169Z,17.5
2016-07-30T06:17:32.291Z,17.6
2016-07-30T06:20:46.525Z,17.6
2016-07-30T06:24:00.628Z,17.6
2016-07-30T06:27:14.989Z,17.8
2016-07-30T06:30:29.064Z,18
2016-07-30T06:33:43.338Z,18.2
2016-07-30T06:36:57.497Z,18.2
2016-07-30T06:40:16.633Z,18.3
2016-07-30T06:43:21.673Z,18.6
2016-07-30T06:46:34.036Z,19
2016-07-30T06:49:50.234Z,19.1
2016-07-30T06:53:09.706Z,19.3
2016-07-30T06:56:14.723Z,19.5
2016-07-30T06:59:28.969Z,19.8
2016-07-30T07:02:43.431Z,19.8
2016-07-30T07:05:57.563Z,19.8
2016-07-30T07:09:16.812Z,20
2016-07-30T07:12:21.926Z,20.2
2016-07-30T07:15:36.550Z,20.4
2016-07-30T07:18:50.453Z,20.5
2016-07-30T07:22:09.574Z,20.6
2016-07-30T07:25:14.741Z,20.9
2016-07-30T07:28:29.258Z,21
2016-07-30T07:31:43.398Z,20.9
2016-07-30T07:34:57.819Z,20.9
2016-07-30T07:38:17.082Z,20.7
2016-07-30T07:41:22.030Z,20.6
2016-07-30T07:44:36.112Z,20.4
2016-07-30T07:47:50.218Z,20.3
2016-07-30T07:51:09.348Z,20.1
2016-07-30T07:54:14.080Z,19.9
2016-07-30T07:57:28.173Z,19.7
2016-07-30T08:00:42.574Z,19.6
2016-07-30T08:03:56.072Z,19.4
2016-07-30T08:07:15.126Z,19.4
2016-07-30T08:10:20.055Z,19.5
2016-07-30T08:13:34.315Z,19.8
2016-07-30T08:16:48.745Z,20.5
2016-07-30T08:20:08.376Z,20.9
2016-07-30T08:23:13.649Z,21.4
2016-07-30T08:26:28.573Z,22.1
2016-07-30T08:29:43.232Z,22.3
2016-07-30T08:32:57.942Z,22.2
2016-07-30T08:36:17.308Z,22.1
2016-07-30T08:39:22.186Z,21.7
2016-07-30T08:42:36.373Z,21.2
2016-07-30T08:45:50.948Z,21.4
2016-07-30T08:49:10.274Z,21.6
2016-07-30T08:52:15.682Z,21.9
2016-07-30T08:55:30.176Z,22
2016-07-30T08:58:44.599Z,22.5
2016-07-30T09:01:59.079Z,22.5
2016-07-30T09:05:13.420Z,22
2016-07-30T09:08:27.617Z,21.6
2016-07-30T09:11:41.904Z,21.1
2016-07-30T09:14:55.442Z,20.8
2016-07-30T09:18:14.722Z,20.6
2016-07-30T09:21:19.645Z,20.4
2016-07-30T09:24:34.025Z,20.3
2016-07-30T09:27:48.265Z,20.2
2016-07-30T09:31:02.430Z,20.2
2016-07-30T09:34:16.805Z,20.3
2016-07-30T09:37:31.121Z,20.2
2016-07-30T09:40:45.092Z,20.1
2016-07-30T09:43:59.331Z,20
2016-07-30T09:47:13.617Z,19.8
2016-07-30T09:50:27.963Z,19.7
2016-07-30T09:53:42.020Z,19.6
2016-07-30T09:56:56.165Z,19.5
2016-07-30T10:00:15.219Z,19.4
2016-07-30T10:03:20.145Z,19.3
2016-07-30T10:06:34.297Z,19.3
2016-07-30T10:09:48.503Z,19.2
2016-07-30T10:13:07.776Z,19.2
2016-07-30T10:16:12.662Z,19.2
2016-07-30T10:19:26.938Z,19.2
2016-07-30T10:22:40.899Z,19.2
2016-07-30T10:25:54.927Z,19.2
2016-07-30T10:29:13.925Z,19.2
2016-07-30T10:32:18.683Z,19.1
2016-07-30T10:35:32.616Z,19.1
2016-07-30T10:38:46.950Z,19.2
2016-07-30T10:42:01.140Z,19.3
2016-07-30T10:45:15.628Z,19.5
2016-07-30T10:48:29.844Z,19.7
2016-07-30T10:51:42.283Z,20
2016-07-30T10:54:58.872Z,20.2
2016-07-30T10:58:13.463Z,20.3
2016-07-30T11:01:28.109Z,20.4
2016-07-30T11:04:42.244Z,20.5
2016-07-30T11:07:56.645Z,20.5
2016-07-30T11:11:15.816Z,20.5
2016-07-30T11:14:20.725Z,20.5
2016-07-30T11:17:34.604Z,20.5
2016-07-30T11:20:48.824Z,20.5
2016-07-30T11:24:08.160Z,20.5
2016-07-30T11:27:13.149Z,20.5
2016-07-30T11:30:27.528Z,20.6
2016-07-30T11:33:41.536Z,20.6
2016-07-30T11:36:55.815Z,20.7
2016-07-30T11:40:14.057Z,20.7
2016-07-30T11:43:20.174Z,20.7
2016-07-30T11:46:32.632Z,20.7
2016-07-30T11:49:48.671Z,20.7
2016-07-30T11:53:02.442Z,20.7
2016-07-30T11:56:16.580Z,20.7
2016-07-30T11:59:31.023Z,20.7
2016-07-30T12:02:45.083Z,20.7
2016-07-30T12:05:59.692Z,20.6
2016-07-30T12:09:17.142Z,20.6
2016-07-30T12:12:22.115Z,20.6
2016-07-30T12:15:36.164Z,20.6
2016-07-30T12:18:50.218Z,20.6
2016-07-30T12:22:09.372Z,20.5
2016-07-30T12:25:14.410Z,20.5
2016-07-30T12:28:28.545Z,20.5
2016-07-30T12:31:42.861Z,20.5
2016-07-30T12:34:57.051Z,20.5
2016-07-30T12:38:15.994Z,20.5
2016-07-30T12:41:20.964Z,20.6
2016-07-30T12:44:35.113Z,20.6
2016-07-30T12:47:49.521Z,20.5
2016-07-30T12:51:08.485Z,20.6
2016-07-30T12:54:13.412Z,20.5
2016-07-30T12:57:27.325Z,20.6
2016-07-30T13:00:41.770Z,20.7
2016-07-30T13:03:56.163Z,20.8
2016-07-30T13:07:14.775Z,20.9
2016-07-30T13:10:19.678Z,21
2016-07-30T13:13:34.124Z,21.1
2016-07-30T13:16:48.278Z,21.1
2016-07-30T13:20:07.684Z,21.1
2016-07-30T13:23:12.543Z,21.2
2016-07-30T13:26:26.708Z,21.2
2016-07-30T13:29:40.448Z,21.2
2016-07-30T13:32:54.622Z,21.2
2016-07-30T13:36:13.728Z,21.2
2016-07-30T13:39:18.773Z,21.2
2016-07-30T13:42:32.774Z,21.1
2016-07-30T13:45:47.171Z,21
2016-07-30T13:49:01.084Z,20.9
2016-07-30T13:52:15.188Z,20.9
2016-07-30T13:55:27.589Z,20.9
2016-07-30T13:58:43.983Z,20.9
2016-07-30T14:01:58.420Z,20.9
2016-07-30T14:05:12.692Z,21
2016-07-30T14:08:26.953Z,21
2016-07-30T14:11:41.098Z,20.9
2016-07-30T14:14:54.773Z,21
2016-07-30T14:18:12.509Z,21
2016-07-30T14:21:17.510Z,21
2016-07-30T14:24:31.764Z,21
2016-07-30T14:27:45.858Z,21
2016-07-30T14:30:59.899Z,21
2016-07-30T14:34:14.028Z,21
2016-07-30T14:37:32.255Z,21
2016-07-30T14:40:42.202Z,21
2016-07-30T14:43:56.378Z,21
2016-07-30T14:47:15.437Z,21.1
2016-07-30T14:50:20.397Z,21.1
2016-07-30T14:53:34.640Z,21
2016-07-30T14:56:48.922Z,21
2016-07-30T15:00:07.918Z,21
2016-07-30T15:03:12.919Z,21.1
2016-07-30T15:06:27.027Z,21.2
2016-07-30T15:09:41.093Z,21.2
2016-07-30T15:12:55.593Z,21.3
2016-07-30T15:16:15.024Z,21.3
2016-07-30T15:19:20.008Z,21.3
2016-07-30T15:22:34.027Z,21.2
2016-07-30T15:25:46.523Z,21.2
2016-07-30T15:29:07.757Z,21.1
2016-07-30T15:32:12.689Z,21.1
2016-07-30T15:35:26.715Z,21.1
2016-07-30T15:38:40.642Z,21
2016-07-30T15:41:55.020Z,21
2016-07-30T15:45:14.331Z,21
2016-07-30T15:48:19.105Z,21
2016-07-30T15:51:33.257Z,21
2016-07-30T15:54:47.408Z,21
2016-07-30T15:58:01.610Z,21
2016-07-30T16:01:15.674Z,20.9
2016-07-30T16:04:29.927Z,21
2016-07-30T16:07:44.121Z,21
2016-07-30T16:10:58.323Z,21
2016-07-30T16:14:12.839Z,21
2016-07-30T16:17:26.609Z,21
2016-07-30T16:20:40.475Z,21
2016-07-30T16:23:53.679Z,21
2016-07-30T16:27:12.511Z,21.1
2016-07-30T16:30:17.496Z,21.1
2016-07-30T16:33:30.808Z,21.1
2016-07-30T16:36:44.751Z,21.2
2016-07-30T16:39:58.961Z,21.2
2016-07-30T16:43:13.501Z,21.1
2016-07-30T16:46:27.842Z,21
2016-07-30T16:49:42.340Z,21
2016-07-30T16:52:57.047Z,20.9
2016-07-30T16:56:16.176Z,20.9
2016-07-30T16:59:20.946Z,20.8
2016-07-30T17:02:35.575Z,20.8
2016-07-30T17:05:50.140Z,20.8
2016-07-30T17:09:09.572Z,20.8
2016-07-30T17:12:14.340Z,20.7
2016-07-30T17:15:28.759Z,20.7
2016-07-30T17:18:43.258Z,20.6
2016-07-30T17:21:57.355Z,20.6
2016-07-30T17:25:16.563Z,20.6
2016-07-30T17:28:21.334Z,20.6
2016-07-30T17:31:35.552Z,20.5
2016-07-30T17:34:49.761Z,20.5
2016-07-30T17:38:09.118Z,20.5
2016-07-30T17:44:28.477Z,20.5
2016-07-30T17:47:43.055Z,20.4
2016-07-30T17:50:57.558Z,20.4
2016-07-30T17:54:16.923Z,20.3
2016-07-30T17:57:21.866Z,20.3
2016-07-30T18:00:36.428Z,20.2
2016-07-30T18:03:50.522Z,20.2
2016-07-30T18:07:09.947Z,20.2
2016-07-30T18:10:14.746Z,20.1
2016-07-30T18:13:28.797Z,20.1
2016-07-30T18:16:43.127Z,20.1
2016-07-30T18:19:57.279Z,20.1
2016-07-30T18:23:16.561Z,20.1
2016-07-30T18:26:21.321Z,20.1
2016-07-30T18:29:35.696Z,20.1
2016-07-30T18:32:50.227Z,20.1
2016-07-30T18:36:09.718Z,20.1
2016-07-30T18:39:14.608Z,20.1
2016-07-30T18:42:28.913Z,20.1
2016-07-30T18:45:43.569Z,20
2016-07-30T18:48:57.878Z,20
2016-07-30T18:52:17.048Z,19.9
2016-07-30T18:55:21.890Z,19.9
2016-07-30T18:58:36.290Z,19.8
2016-07-30T19:01:50.851Z,19.8
2016-07-30T19:05:10.301Z,19.7
2016-07-30T19:08:15.202Z,19.7
2016-07-30T19:14:44.164Z,19.6
2016-07-30T19:17:57.399Z,19.5
2016-07-30T19:21:16.430Z,19.5
2016-07-30T19:24:21.166Z,19.5
2016-07-30T19:27:35.637Z,19.4
2016-07-30T19:30:50.251Z,19.4
2016-07-30T19:34:09.737Z,19.3
2016-07-30T19:37:14.501Z,19.2
2016-07-30T19:40:28.899Z,19.2
2016-07-30T19:43:42.877Z,19.2
2016-07-30T19:46:55.525Z,19.1
2016-07-30T19:50:16.797Z,19.1
2016-07-30T19:53:21.639Z,19.1
2016-07-30T19:59:50.349Z,19
2016-07-30T20:03:09.847Z,18.9
2016-07-30T20:06:14.618Z,18.9
2016-07-30T20:09:28.963Z,18.9
2016-07-30T20:12:43.526Z,18.8
2016-07-30T20:15:58.076Z,18.8
2016-07-30T20:19:17.298Z,18.7
2016-07-30T20:22:21.881Z,18.7
2016-07-30T20:25:36.297Z,18.7
2016-07-30T20:28:50.471Z,18.7
2016-07-30T20:32:07.946Z,18.6
2016-07-30T20:35:17.523Z,18.6
2016-07-30T20:38:22.290Z,18.5
2016-07-30T20:41:36.627Z,18.5
2016-07-30T20:44:50.840Z,18.5
2016-07-30T20:48:10.230Z,18.4
2016-07-30T20:51:14.996Z,18.4
2016-07-30T20:54:29.102Z,18.4
2016-07-30T20:57:43.266Z,18.3
2016-07-30T21:00:57.622Z,18.3
2016-07-30T21:04:16.692Z,18.2
2016-07-30T21:07:21.437Z,18.2
2016-07-30T21:10:35.791Z,18.2
2016-07-30T21:13:50.266Z,18.1
2016-07-30T21:17:09.748Z,18.1
2016-07-30T21:20:14.419Z,18
2016-07-30T21:23:28.672Z,18
2016-07-30T21:26:43.062Z,18
2016-07-30T21:29:57.491Z,17.9
2016-07-30T21:33:16.898Z,17.9
2016-07-30T21:36:21.591Z,17.8
2016-07-30T21:39:35.886Z,17.8
2016-07-30T21:42:50.260Z,17.7
2016-07-30T21:46:09.571Z,17.7
2016-07-30T21:49:14.107Z,17.7
2016-07-30T21:52:28.576Z,17.6
2016-07-30T21:55:42.777Z,17.6
2016-07-30T21:58:57.019Z,17.5
2016-07-30T22:02:16.244Z,17.5
2016-07-30T22:05:21.014Z,17.5
2016-07-30T22:08:35.220Z,17.4
2016-07-30T22:11:49.599Z,17.4
2016-07-30T22:15:08.705Z,17.4
2016-07-30T22:18:13.292Z,17.4
2016-07-30T22:21:27.058Z,17.3
2016-07-30T22:24:41.331Z,17.3
2016-07-30T22:27:55.656Z,17.3
2016-07-30T22:31:14.727Z,17.3
2016-07-30T22:34:19.316Z,17.3
2016-07-30T22:37:33.469Z,17.3
2016-07-30T22:40:45.563Z,17.2
2016-07-30T22:44:01.644Z,17.2
2016-07-30T22:47:15.739Z,17.2
2016-07-30T22:50:30.175Z,17.1
2016-07-30T22:53:44.443Z,17.1
2016-07-30T22:56:58.828Z,17.1
2016-07-30T23:00:17.273Z,17
2016-07-30T23:03:21.872Z,17
2016-07-30T23:06:36.047Z,17
2016-07-30T23:09:48.160Z,17
2016-07-30T23:13:09.624Z,16.9
2016-07-30T23:16:14.116Z,16.9
2016-07-30T23:19:28.369Z,16.9
2016-07-30T23:22:42.690Z,16.8
2016-07-30T23:25:57.128Z,16.8
2016-07-30T23:29:16.313Z,16.7
2016-07-30T23:32:20.723Z,16.7
2016-07-30T23:35:35.113Z,16.7
2016-07-30T23:38:49.271Z,16.7
2016-07-30T23:42:08.554Z,16.6
2016-07-30T23:45:13.167Z,16.6
2016-07-30T23:48:27.393Z,16.6
2016-07-30T23:51:41.680Z,16.6
2016-07-30T23:54:55.711Z,16.6
2016-07-30T23:58:15.091Z,16.6
